createdAt,value
2022-11-21T00:01:01.831Z,0.70
2022-11-21T00:04:10.094Z,0.70
2022-11-21T00:07:18.406Z,0.70
2022-11-21T00:10:27.702Z,0.70
2022-11-21T00:13:37.587Z,0.70
2022-11-21T00:16:47.320Z,0.70
2022-11-21T00:19:55.812Z,0.60
2022-11-21T00:23:04.446Z,0.60
2022-11-21T00:26:14.329Z,0.60
2022-11-21T00:29:24.129Z,0.60
2022-11-21T00:32:33.175Z,0.60
2022-11-21T00:35:41.574Z,0.60
2022-11-21T00:38:49.986Z,0.60
2022-11-21T00:41:58.394Z,0.60
2022-11-21T00:45:08.977Z,0.60
2022-11-21T00:48:17.483Z,0.60
2022-11-21T00:51:25.919Z,0.60
2022-11-21T00:54:34.329Z,0.60
2022-11-21T00:57:42.733Z,0.60
2022-11-21T01:00:52.551Z,0.60
2022-11-21T01:04:00.980Z,0.60
2022-11-21T01:07:09.277Z,0.60
2022-11-21T01:10:17.721Z,0.50
2022-11-21T01:13:25.978Z,0.50
2022-11-21T01:16:36.177Z,0.50
2022-11-21T01:19:44.472Z,0.50
2022-11-21T01:22:52.752Z,0.50
2022-11-21T01:26:04.721Z,0.50
2022-11-21T01:29:13.039Z,0.50
2022-11-21T01:32:22.700Z,0.50
2022-11-21T01:35:31.005Z,0.50
2022-11-21T01:38:39.758Z,0.50
2022-11-21T01:41:48.019Z,0.50
2022-11-21T01:44:56.285Z,0.50
2022-11-21T01:48:06.702Z,0.50
2022-11-21T01:51:18.876Z,0.50
2022-11-21T01:54:31.242Z,0.50
2022-11-21T01:57:42.506Z,0.50
2022-11-21T02:00:51.515Z,0.50
2022-11-21T02:04:04.158Z,0.40
2022-11-21T02:07:14.775Z,0.40
2022-11-21T02:10:23.466Z,0.40
2022-11-21T02:13:31.943Z,0.40
2022-11-21T02:16:41.030Z,0.40
2022-11-21T02:19:54.559Z,0.30
2022-11-21T02:23:09.698Z,0.30
2022-11-21T02:26:19.489Z,0.30
2022-11-21T02:29:28.311Z,0.20
2022-11-21T02:32:38.953Z,0.20
2022-11-21T02:35:57.674Z,0.20
2022-11-21T02:39:08.048Z,0.20
2022-11-21T02:42:22.549Z,0.10
2022-11-21T02:45:35.762Z,0.10
2022-11-21T02:48:44.394Z,0.10
2022-11-21T02:51:52.639Z,0.00
2022-11-21T02:55:00.938Z,0.00
2022-11-21T02:58:11.046Z,0.00
2022-11-21T03:01:19.332Z,-0.10
2022-11-21T03:04:28.021Z,-0.10
2022-11-21T03:07:36.495Z,-0.10
2022-11-21T03:10:44.817Z,-0.10
2022-11-21T03:13:54.443Z,-0.10
2022-11-21T03:17:02.946Z,-0.10
2022-11-21T03:20:12.224Z,0.00
2022-11-21T03:23:20.509Z,0.00
2022-11-21T03:26:29.360Z,-0.10
2022-11-21T03:29:39.083Z,-0.20
2022-11-21T03:32:47.398Z,-0.20
2022-11-21T03:35:55.721Z,-0.10
2022-11-21T03:39:04.089Z,-0.10
2022-11-21T03:42:12.497Z,-0.10
2022-11-21T03:45:22.098Z,-0.10
2022-11-21T03:48:30.401Z,0.00
2022-11-21T03:51:39.180Z,0.00
2022-11-21T03:54:47.479Z,0.10
2022-11-21T03:57:55.753Z,0.10
2022-11-21T04:01:05.764Z,0.10
2022-11-21T04:04:14.137Z,0.10
2022-11-21T04:07:22.608Z,0.20
2022-11-21T04:10:30.908Z,0.20
2022-11-21T04:13:39.497Z,0.20
2022-11-21T04:16:49.550Z,0.20
2022-11-21T04:19:57.844Z,0.20
2022-11-21T04:23:06.409Z,0.30
2022-11-21T04:26:14.789Z,0.30
2022-11-21T04:29:23.113Z,0.40
2022-11-21T04:32:32.820Z,0.40
2022-11-21T04:35:41.309Z,0.40
2022-11-21T04:38:49.714Z,0.40
2022-11-21T04:41:57.994Z,0.40
2022-11-21T04:45:07.792Z,0.40
2022-11-21T04:48:17.497Z,0.40
2022-11-21T04:51:25.812Z,0.40
2022-11-21T04:54:34.153Z,0.40
2022-11-21T04:57:42.428Z,0.30
2022-11-21T05:00:50.811Z,0.30
2022-11-21T05:04:00.468Z,0.20
2022-11-21T05:07:08.817Z,0.30
2022-11-21T05:10:17.248Z,0.20
2022-11-21T05:13:24.618Z,0.10
2022-11-21T05:16:34.591Z,0.00
2022-11-21T05:19:44.255Z,0.10
2022-11-21T05:22:53.617Z,0.10
2022-11-21T05:26:01.934Z,0.10
2022-11-21T05:29:10.269Z,0.10
2022-11-21T05:32:18.565Z,0.00
2022-11-21T05:35:28.236Z,0.10
2022-11-21T05:38:36.530Z,0.10
2022-11-21T05:41:44.813Z,0.10
2022-11-21T05:44:52.185Z,0.00
2022-11-21T05:48:00.471Z,0.10
2022-11-21T05:51:10.762Z,0.10
2022-11-21T05:54:19.080Z,0.00
2022-11-21T05:57:27.343Z,0.10
2022-11-21T06:00:35.664Z,0.10
2022-11-21T06:03:43.345Z,0.20
2022-11-21T06:06:53.102Z,0.30
2022-11-21T06:10:01.374Z,0.30
2022-11-21T06:13:22.172Z,0.30
2022-11-21T06:16:30.762Z,0.30
2022-11-21T06:19:39.113Z,0.40
2022-11-21T06:22:48.821Z,0.40
2022-11-21T06:25:59.321Z,0.20
2022-11-21T06:29:07.585Z,0.20
2022-11-21T06:32:15.917Z,0.20
2022-11-21T06:35:24.250Z,0.20
2022-11-21T06:38:34.414Z,0.20
2022-11-21T06:41:42.687Z,0.20
2022-11-21T06:44:51.073Z,0.20
2022-11-21T06:48:02.451Z,0.20
2022-11-21T06:51:19.256Z,0.20
2022-11-21T06:54:29.309Z,0.20
2022-11-21T06:57:37.856Z,0.30
2022-11-21T07:00:48.390Z,0.20
2022-11-21T07:03:57.035Z,0.20
2022-11-21T07:07:05.370Z,0.20
2022-11-21T07:10:15.456Z,0.10
2022-11-21T07:13:23.725Z,0.10
2022-11-21T07:16:32.555Z,0.20
2022-11-21T07:19:41.261Z,0.20
2022-11-21T07:22:49.621Z,0.20
2022-11-21T07:26:01.715Z,0.20
2022-11-21T07:29:09.965Z,0.20
2022-11-21T07:32:18.266Z,0.10
2022-11-21T07:35:27.174Z,0.20
2022-11-21T07:38:35.473Z,0.20
2022-11-21T07:41:45.121Z,0.20
2022-11-21T07:44:53.551Z,0.10
2022-11-21T07:48:02.643Z,0.10
2022-11-21T07:51:11.196Z,0.10
2022-11-21T07:54:19.470Z,0.20
2022-11-21T07:57:29.130Z,0.20
2022-11-21T08:00:40.251Z,0.20
2022-11-21T08:03:48.617Z,0.10
2022-11-21T08:06:57.072Z,0.10
2022-11-21T08:10:05.958Z,0.20
2022-11-21T08:13:16.129Z,0.20
2022-11-21T08:16:28.017Z,0.30
2022-11-21T08:19:36.624Z,0.30
2022-11-21T08:22:45.441Z,0.30
2022-11-21T08:25:53.872Z,0.30
2022-11-21T08:29:03.556Z,0.30
2022-11-21T08:32:11.881Z,0.40
2022-11-21T08:35:20.253Z,0.40
2022-11-21T08:38:28.528Z,0.40
2022-11-21T08:41:54.306Z,0.50
2022-11-21T08:45:04.011Z,0.40
2022-11-21T08:48:12.942Z,0.40
2022-11-21T08:51:21.338Z,0.40
2022-11-21T08:54:29.982Z,0.40
2022-11-21T08:57:39.286Z,0.40
2022-11-21T09:00:48.962Z,0.40
2022-11-21T09:03:57.344Z,0.40
2022-11-21T09:07:05.709Z,0.40
2022-11-21T09:10:14.068Z,0.30
2022-11-21T09:13:22.715Z,0.30
2022-11-21T09:16:49.874Z,0.30
2022-11-21T09:19:58.180Z,0.20
2022-11-21T09:23:07.307Z,0.20
2022-11-21T09:26:15.695Z,0.20
2022-11-21T09:29:23.969Z,0.10
2022-11-21T09:32:33.636Z,0.20
2022-11-21T09:35:42.062Z,0.20
2022-11-21T09:38:53.386Z,0.20
2022-11-21T09:42:27.585Z,0.20
2022-11-21T09:45:38.259Z,0.20
2022-11-21T09:48:56.162Z,0.20
2022-11-21T09:52:04.989Z,0.10
2022-11-21T09:55:22.633Z,0.20
2022-11-21T09:58:36.729Z,0.20
2022-11-21T10:01:45.017Z,0.40
2022-11-21T10:05:00.651Z,0.30
2022-11-21T10:08:18.650Z,0.40
2022-11-21T10:11:58.951Z,0.30
2022-11-21T10:15:24.931Z,0.30
2022-11-21T10:18:56.810Z,0.30
2022-11-21T10:22:27.895Z,0.40
2022-11-21T10:25:39.162Z,0.30
2022-11-21T10:28:54.127Z,0.30
2022-11-21T10:32:10.559Z,0.30
2022-11-21T10:35:22.995Z,0.20
2022-11-21T10:38:38.868Z,0.20
2022-11-21T10:41:52.450Z,0.20
2022-11-21T10:45:18.742Z,0.20
2022-11-21T10:48:27.039Z,0.20
2022-11-21T10:51:44.252Z,0.20
2022-11-21T10:55:07.509Z,0.10
2022-11-21T10:58:20.336Z,0.10
2022-11-21T11:01:30.635Z,0.10
2022-11-21T11:04:47.600Z,0.00
2022-11-21T11:08:04.709Z,0.00
2022-11-21T11:11:21.576Z,0.10
2022-11-21T11:14:33.352Z,0.10
2022-11-21T11:17:41.689Z,0.10
2022-11-21T11:20:50.450Z,0.10
2022-11-21T11:24:22.403Z,0.10
2022-11-21T11:27:34.821Z,0.10
2022-11-21T11:30:44.259Z,0.20
2022-11-21T11:33:54.982Z,0.10
2022-11-21T11:37:12.940Z,0.20
2022-11-21T11:40:27.148Z,0.40
2022-11-21T11:44:09.126Z,0.40
2022-11-21T11:47:32.484Z,0.30
2022-11-21T11:50:47.245Z,0.20
2022-11-21T11:54:01.369Z,0.30
2022-11-21T11:57:11.228Z,0.30
2022-11-21T12:00:30.695Z,0.30
2022-11-21T12:03:44.960Z,0.30
2022-11-21T12:10:29.691Z,0.20
2022-11-21T12:13:38.937Z,0.20
2022-11-21T12:16:48.853Z,0.20
2022-11-21T12:19:59.748Z,0.30
2022-11-21T12:23:11.498Z,0.20
2022-11-21T12:26:39.472Z,0.10
2022-11-21T12:30:02.527Z,0.10
2022-11-21T12:33:20.528Z,0.10
2022-11-21T12:36:36.845Z,0.10
2022-11-21T12:40:00.800Z,0.10
2022-11-21T12:43:25.230Z,0.10
2022-11-21T12:46:47.077Z,0.10
2022-11-21T12:50:22.130Z,0.00
2022-11-21T12:53:58.966Z,0.00
2022-11-21T12:57:11.975Z,0.00
2022-11-21T13:00:27.110Z,0.00
2022-11-21T13:03:48.825Z,0.10
2022-11-21T13:06:59.535Z,0.00
2022-11-21T13:10:15.551Z,0.10
2022-11-21T13:13:30.473Z,0.10
2022-11-21T13:16:46.632Z,0.00
2022-11-21T13:19:59.263Z,0.10
2022-11-21T13:23:38.413Z,0.10
2022-11-21T13:26:52.789Z,0.00
2022-11-21T13:30:21.908Z,0.00
2022-11-21T13:33:51.284Z,0.00
2022-11-21T13:37:00.164Z,0.00
2022-11-21T13:40:37.693Z,-0.10
2022-11-21T13:43:44.950Z,-0.10
2022-11-21T13:47:00.455Z,-0.10
2022-11-21T13:50:18.516Z,0.00
2022-11-21T13:53:42.828Z,0.00
2022-11-21T13:57:10.855Z,-0.10
2022-11-21T14:00:31.374Z,-0.10
2022-11-21T14:04:05.710Z,-0.10
2022-11-21T14:07:29.470Z,-0.10
2022-11-21T14:10:37.841Z,-0.10
2022-11-21T14:13:50.535Z,-0.20
2022-11-21T14:17:17.479Z,-0.20
2022-11-21T14:20:28.346Z,-0.10
2022-11-21T14:23:37.778Z,-0.10
2022-11-21T14:26:48.900Z,-0.20
2022-11-21T14:29:58.916Z,-0.20
2022-11-21T14:33:37.715Z,-0.20
2022-11-21T14:36:46.353Z,-0.20
2022-11-21T14:39:57.388Z,-0.10
2022-11-21T14:43:29.941Z,-0.10
2022-11-21T14:46:41.371Z,-0.20
2022-11-21T14:49:53.836Z,-0.20
2022-11-21T14:53:03.115Z,-0.20
2022-11-21T14:56:13.343Z,-0.10
2022-11-21T14:59:25.603Z,-0.20
2022-11-21T15:02:35.957Z,-0.20
2022-11-21T15:10:25.116Z,-0.20
2022-11-21T15:12:49.221Z,-0.10
2022-11-21T15:15:59.522Z,-0.10
2022-11-21T15:19:12.193Z,-0.10
2022-11-21T15:22:26.491Z,-0.20
2022-11-21T15:25:47.211Z,-0.20
2022-11-21T15:28:56.897Z,-0.20
2022-11-21T15:32:12.602Z,-0.20
2022-11-21T15:35:41.907Z,-0.20
2022-11-21T15:38:57.000Z,-0.20
2022-11-21T15:42:35.952Z,-0.20
2022-11-21T15:45:44.232Z,-0.10
2022-11-21T15:48:53.894Z,-0.10
2022-11-21T15:52:09.056Z,-0.10
2022-11-21T15:55:22.001Z,-0.10
2022-11-21T15:58:30.283Z,-0.10
2022-11-21T16:01:39.276Z,-0.20
2022-11-21T16:04:47.599Z,-0.10
2022-11-21T16:07:57.334Z,0.00
2022-11-21T16:11:05.765Z,0.00
2022-11-21T16:14:17.185Z,-0.10
2022-11-21T16:17:25.437Z,0.00
2022-11-21T16:20:33.697Z,0.00
2022-11-21T16:23:43.528Z,0.00
2022-11-21T16:26:54.577Z,-0.10
2022-11-21T16:30:02.846Z,0.00
2022-11-21T16:33:11.410Z,0.00
2022-11-21T16:36:26.100Z,0.00
2022-11-21T16:39:36.022Z,0.10
2022-11-21T16:42:44.453Z,0.10
2022-11-21T16:45:53.555Z,0.00
2022-11-21T16:49:03.471Z,0.00
2022-11-21T16:52:12.553Z,0.00
2022-11-21T16:55:23.398Z,0.10
2022-11-21T16:58:31.871Z,0.10
2022-11-21T17:01:40.307Z,0.10
2022-11-21T17:04:48.655Z,0.10
2022-11-21T17:07:58.922Z,0.10
2022-11-21T17:11:16.709Z,0.10
2022-11-21T17:14:25.023Z,0.10
2022-11-21T17:17:33.327Z,0.20
2022-11-21T17:20:41.618Z,0.10
2022-11-21T17:23:50.401Z,0.10
2022-11-21T17:27:02.593Z,0.10
2022-11-21T17:30:12.262Z,0.10
2022-11-21T17:33:21.896Z,0.20
2022-11-21T17:36:34.447Z,0.20
2022-11-21T17:39:42.872Z,0.20
2022-11-21T17:42:52.651Z,0.20
2022-11-21T17:46:06.330Z,0.20
2022-11-21T17:49:17.800Z,0.20
2022-11-21T17:52:26.133Z,0.20
2022-11-21T17:55:34.497Z,0.30
2022-11-21T17:58:44.354Z,0.30
2022-11-21T18:01:52.744Z,0.20
2022-11-21T18:05:01.242Z,0.30
2022-11-21T18:08:09.527Z,0.30
2022-11-21T18:11:19.504Z,0.30
2022-11-21T18:14:29.435Z,0.40
2022-11-21T18:17:37.969Z,0.30
2022-11-21T18:20:46.302Z,0.30
2022-11-21T18:23:55.858Z,0.30
2022-11-21T18:27:04.232Z,0.30
2022-11-21T18:30:14.686Z,0.30
2022-11-21T18:33:23.241Z,0.30
2022-11-21T18:36:32.658Z,0.30
2022-11-21T18:39:40.904Z,0.40
2022-11-21T18:42:49.193Z,0.40
2022-11-21T18:46:05.050Z,0.40
2022-11-21T18:49:13.333Z,0.30
2022-11-21T18:52:21.710Z,0.20
2022-11-21T18:55:30.045Z,0.20
2022-11-21T18:58:39.898Z,0.20
2022-11-21T19:01:51.012Z,0.10
2022-11-21T19:04:59.378Z,0.10
2022-11-21T19:08:07.974Z,0.10
2022-11-21T19:11:17.640Z,0.10
2022-11-21T19:14:26.214Z,0.00
2022-11-21T19:17:36.036Z,-0.10
2022-11-21T19:20:44.308Z,-0.10
2022-11-21T19:23:52.568Z,-0.10
2022-11-21T19:27:00.966Z,-0.20
2022-11-21T19:30:09.949Z,-0.20
2022-11-21T19:33:19.637Z,-0.20
2022-11-21T19:36:27.941Z,-0.30
2022-11-21T19:39:36.443Z,-0.30
2022-11-21T19:42:44.757Z,-0.30
2022-11-21T19:45:57.896Z,-0.40
2022-11-21T19:49:09.326Z,-0.40
2022-11-21T19:52:17.670Z,-0.50
2022-11-21T19:55:28.319Z,-0.50
2022-11-21T19:58:36.757Z,-0.50
2022-11-21T20:01:50.989Z,-0.50
2022-11-21T20:05:02.091Z,-0.50
2022-11-21T20:08:17.341Z,-0.60
2022-11-21T20:11:28.152Z,-0.60
2022-11-21T20:14:36.447Z,-0.60
2022-11-21T20:17:44.759Z,-0.60
2022-11-21T20:20:54.498Z,-0.70
2022-11-21T20:24:02.846Z,-0.70
2022-11-21T20:27:13.433Z,-0.80
2022-11-21T20:30:25.041Z,-0.80
2022-11-21T20:33:36.128Z,-0.70
2022-11-21T20:36:46.674Z,-0.80
2022-11-21T20:39:55.404Z,-0.80
2022-11-21T20:43:03.919Z,-0.90
2022-11-21T20:46:18.686Z,-0.90
2022-11-21T20:49:28.932Z,-0.90
2022-11-21T20:56:08.945Z,-0.90
2022-11-21T20:59:17.242Z,-0.90
2022-11-21T21:02:25.555Z,-0.90
2022-11-21T21:05:34.039Z,-0.90
2022-11-21T21:08:43.825Z,-1.00
2022-11-21T21:11:53.385Z,-1.00
2022-11-21T21:15:01.968Z,-1.00
2022-11-21T21:18:10.269Z,-1.00
2022-11-21T21:21:21.068Z,-1.00
2022-11-21T21:24:30.750Z,-1.00
2022-11-21T21:27:39.028Z,-1.00
2022-11-21T21:30:47.840Z,-1.00
2022-11-21T21:33:56.346Z,-1.00
2022-11-21T21:37:04.663Z,-0.90
2022-11-21T21:40:14.671Z,-0.90
2022-11-21T21:43:23.006Z,-0.90
2022-11-21T21:46:31.442Z,-0.90
2022-11-21T21:49:39.793Z,-1.00
2022-11-21T21:52:48.161Z,-1.00
2022-11-21T21:56:00.976Z,-1.10
2022-11-21T21:59:09.515Z,-1.10
2022-11-21T22:02:17.892Z,-1.10
2022-11-21T22:05:26.877Z,-1.10
2022-11-21T22:08:36.576Z,-1.20
2022-11-21T22:11:46.397Z,-1.20
2022-11-21T22:14:54.747Z,-1.20
2022-11-21T22:18:03.080Z,-1.20
2022-11-21T22:21:15.548Z,-1.30
2022-11-21T22:24:26.038Z,-1.30
2022-11-21T22:27:36.494Z,-1.30
2022-11-21T22:30:54.342Z,-1.30
2022-11-21T22:34:02.767Z,-1.20
2022-11-21T22:37:11.123Z,-1.20
2022-11-21T22:40:19.911Z,-1.20
2022-11-21T22:43:29.659Z,-1.40
2022-11-21T22:46:37.949Z,-1.50
2022-11-21T22:49:46.286Z,-1.60
2022-11-21T22:52:54.760Z,-1.90
2022-11-21T22:56:04.865Z,-2.00
2022-11-21T22:59:15.207Z,-2.10
2022-11-21T23:02:23.509Z,-2.10
2022-11-21T23:05:31.757Z,-2.20
2022-11-21T23:08:41.655Z,-2.30
2022-11-21T23:11:49.997Z,-2.30
2022-11-21T23:15:01.110Z,-2.40
2022-11-21T23:18:09.406Z,-2.40
2022-11-21T23:21:17.636Z,-2.40
2022-11-21T23:24:25.846Z,-2.40
2022-11-21T23:27:34.051Z,-2.40
2022-11-21T23:30:45.350Z,-2.40
2022-11-21T23:33:53.579Z,-2.30
2022-11-21T23:37:01.846Z,-2.50
2022-11-21T23:40:11.330Z,-2.40
2022-11-21T23:43:20.167Z,-2.00
2022-11-21T23:46:30.365Z,-1.70
2022-11-21T23:49:38.633Z,-1.60
2022-11-21T23:52:47.440Z,-1.60
2022-11-21T23:55:55.874Z,-1.60
2022-11-21T23:59:04.121Z,-1.70
